Time;durP1;ratioP1;P1;durP2;ratioP2;P2;SDS_P1;SDS_P2;PMS_P1;PMS_P2;Temp;Humidity;BMP_temperature;BMP_pressure;BME280_temperature;BME280_humidity;BME280_pressure;Samples;Min_cycle;Max_cycle;Signal;HPM_P1;HPM_P2
2022/05/30 00:01:05;;;;;;;0.00;0.00;;;;;;;;;;5035246;28;98759;-73
2022/05/30 00:03:31;;;;;;;0.00;0.00;;;;;;;;;;5034604;28;99520;-73
2022/05/30 00:05:57;;;;;;;0.00;0.00;;;;;;;;;;5035078;28;98569;-72
2022/05/30 00:08:24;;;;;;;0.00;0.00;;;;;;;;;;5033757;28;99397;-73
2022/05/30 00:10:50;;;;;;;0.00;0.00;;;;;;;;;;5034489;28;99539;-73
2022/05/30 00:13:16;;;;;;;0.00;0.00;;;;;;;;;;5034983;28;98537;-73
2022/05/30 00:15:43;;;;;;;0.00;0.00;;;;;;;;;;5037748;28;99358;-73
2022/05/30 00:18:09;;;;;;;0.00;0.00;;;;;;;;;;5034815;28;98304;-73
2022/05/30 00:20:36;;;;;;;0.00;0.00;;;;;;;;;;5034739;28;99431;-73
2022/05/30 00:23:03;;;;;;;0.00;0.00;;;;;;;;;;5033933;28;99272;-72
2022/05/30 00:25:30;;;;;;;0.00;0.00;;;;;;;;;;5035277;28;97488;-72
2022/05/30 00:27:56;;;;;;;0.00;0.00;;;;;;;;;;5034765;28;98650;-73
2022/05/30 00:30:22;;;;;;;0.00;0.00;;;;;;;;;;5034209;28;99520;-73
2022/05/30 00:32:48;;;;;;;0.00;0.00;;;;;;;;;;5034024;28;99437;-73
2022/05/30 00:35:15;;;;;;;0.00;0.00;;;;;;;;;;5037015;28;100898;-73
2022/05/30 00:37:41;;;;;;;0.00;0.00;;;;;;;;;;5034495;28;98383;-73
2022/05/30 00:40:08;;;;;;;0.00;0.00;;;;;;;;;;5034500;28;99493;-72
2022/05/30 00:42:36;;;;;;;0.00;0.00;;;;;;;;;;5033725;28;100731;-72
2022/05/30 00:45:02;;;;;;;0.00;0.00;;;;;;;;;;5034504;28;98418;-72
2022/05/30 00:47:28;;;;;;;0.00;0.00;;;;;;;;;;5034281;28;99467;-72
2022/05/30 00:49:55;;;;;;;0.00;0.00;;;;;;;;;;5034000;28;99378;-72
2022/05/30 00:52:29;;;;;;;0.00;0.00;;;;;;;;;;5034439;28;98315;-72
2022/05/30 00:55:00;;;;;;;0.00;0.00;;;;;;;;;;5016768;28;99283;-73
2022/05/30 00:57:29;;;;;;;0.00;0.00;;;;;;;;;;5036646;28;100336;-72
2022/05/30 00:59:58;;;;;;;0.00;0.00;;;;;;;;;;5033882;28;101314;-72
2022/05/30 01:02:25;;;;;;;0.00;0.00;;;;;;;;;;5033511;28;99415;-75
2022/05/30 01:07:38;;;;;;;0.00;0.00;;;;;;;;;;5033680;28;99400;-72
2022/05/30 01:10:06;;;;;;;0.00;0.00;;;;;;;;;;5033662;28;98942;-72
2022/05/30 01:12:37;;;;;;;0.00;0.00;;;;;;;;;;5032896;28;98418;-72
2022/05/30 01:15:05;;;;;;;0.00;0.00;;;;;;;;;;5034152;28;99503;-73
2022/05/30 01:17:32;;;;;;;0.00;0.00;;;;;;;;;;5015599;28;102204;-72
2022/05/30 01:20:06;;;;;;;0.00;0.00;;;;;;;;;;5019383;28;98457;-72
2022/05/30 01:22:53;;;;;;;0.00;0.00;;;;;;;;;;5015128;28;101657;-72
2022/05/30 01:25:25;;;;;;;0.00;0.00;;;;;;;;;;5015531;28;98471;-73
2022/05/30 01:28:22;;;;;;;0.00;0.00;;;;;;;;;;5020878;27;101659;-73
2022/05/30 01:30:52;;;;;;;0.00;0.00;;;;;;;;;;5035565;27;101148;-73
2022/05/30 01:33:18;;;;;;;0.00;0.00;;;;;;;;;;5035882;27;98465;-73
2022/05/30 01:35:45;;;;;;;0.00;0.00;;;;;;;;;;5039943;27;101846;-72
2022/05/30 01:38:14;;;;;;;0.00;0.00;;;;;;;;;;5038790;27;102065;-72
2022/05/30 01:40:43;;;;;;;0.00;0.00;;;;;;;;;;5036254;27;97842;-72
2022/05/30 01:43:10;;;;;;;0.00;0.00;;;;;;;;;;5038840;27;100579;-73
2022/05/30 01:45:39;;;;;;;0.00;0.00;;;;;;;;;;5035593;27;98960;-72
2022/05/30 01:48:06;;;;;;;0.00;0.00;;;;;;;;;;5035354;27;100355;-72
2022/05/30 01:50:32;;;;;;;0.00;0.00;;;;;;;;;;5034832;27;101949;-73
2022/05/30 01:53:08;;;;;;;0.00;0.00;;;;;;;;;;5035485;27;98713;-72
2022/05/30 01:55:56;;;;;;;0.00;0.00;;;;;;;;;;5038698;27;100062;-72
2022/05/30 01:58:22;;;;;;;0.00;0.00;;;;;;;;;;5035097;27;102329;-72
2022/05/30 02:01:17;;;;;;;0.00;0.00;;;;;;;;;;5053466;27;100092;-73
2022/05/30 02:03:44;;;;;;;0.00;0.00;;;;;;;;;;5035508;27;101282;-73
2022/05/30 02:06:11;;;;;;;0.00;0.00;;;;;;;;;;5038917;27;100680;-72
2022/05/30 02:08:37;;;;;;;0.00;0.00;;;;;;;;;;5034916;27;99852;-73
2022/05/30 02:11:04;;;;;;;0.00;0.00;;;;;;;;;;5053165;27;100010;-73
2022/05/30 02:13:30;;;;;;;0.00;0.00;;;;;;;;;;5034496;27;99167;-73
2022/05/30 02:18:57;;;;;;;0.00;0.00;;;;;;;;;;5034736;27;101557;-73
2022/05/30 02:21:23;;;;;;;0.00;0.00;;;;;;;;;;5053297;27;98454;-72
2022/05/30 02:23:51;;;;;;;0.00;0.00;;;;;;;;;;5055933;27;100133;-73
2022/05/30 02:26:17;;;;;;;0.00;0.00;;;;;;;;;;5038083;27;101950;-72
2022/05/30 02:28:45;;;;;;;0.00;0.00;;;;;;;;;;5041973;27;98450;-73
2022/05/30 02:31:11;;;;;;;0.00;0.00;;;;;;;;;;5038841;27;101491;-73
2022/05/30 02:36:39;;;;;;;0.00;0.00;;;;;;;;;;5038275;27;101177;-73
2022/05/30 02:39:09;;;;;;;0.00;0.00;;;;;;;;;;5037633;27;102342;-72
2022/05/30 02:41:55;;;;;;;0.00;0.00;;;;;;;;;;5056395;27;98318;-73
2022/05/30 02:44:24;;;;;;;0.00;0.00;;;;;;;;;;5056696;27;99525;-73
2022/05/30 02:46:52;;;;;;;0.00;0.00;;;;;;;;;;5037621;27;102252;-73
2022/05/30 02:49:19;;;;;;;0.00;0.00;;;;;;;;;;5041986;27;98347;-73
2022/05/30 02:51:46;;;;;;;0.00;0.00;;;;;;;;;;5037793;27;100545;-73
2022/05/30 02:54:13;;;;;;;0.00;0.00;;;;;;;;;;5038484;27;98429;-73
2022/05/30 02:56:58;;;;;;;0.00;0.00;;;;;;;;;;5056523;27;98368;-73
2022/05/30 02:59:26;;;;;;;0.00;0.00;;;;;;;;;;5055860;27;99446;-73
2022/05/30 03:02:01;;;;;;;0.00;0.00;;;;;;;;;;5038207;27;98587;-73
2022/05/30 03:04:27;;;;;;;0.08;0.08;;;;;;;;;;5037843;27;101875;-73
2022/05/30 03:06:54;;;;;;;0.00;0.00;;;;;;;;;;5037848;27;102041;-73
2022/05/30 03:09:20;;;;;;;0.20;0.20;;;;;;;;;;5037998;27;98486;-72
2022/05/30 03:12:02;;;;;;;0.00;0.00;;;;;;;;;;5058676;27;100111;-73
2022/05/30 03:14:28;;;;;;;0.00;0.00;;;;;;;;;;5037949;27;98416;-73
2022/05/30 03:16:55;;;;;;;0.00;0.00;;;;;;;;;;5037939;27;102034;-72
2022/05/30 03:19:21;;;;;;;0.00;0.00;;;;;;;;;;5037585;27;101348;-72
2022/05/30 03:21:49;;;;;;;0.00;0.00;;;;;;;;;;5038202;27;97734;-72
2022/05/30 03:24:16;;;;;;;0.00;0.00;;;;;;;;;;5037649;27;100549;-72
2022/05/30 03:26:43;;;;;;;0.00;0.00;;;;;;;;;;5055424;27;99487;-73
2022/05/30 03:29:11;;;;;;;0.00;0.00;;;;;;;;;;5055359;27;99136;-73
2022/05/30 03:31:42;;;;;;;0.00;0.00;;;;;;;;;;5037420;27;102548;-73
2022/05/30 03:34:08;;;;;;;0.00;0.00;;;;;;;;;;5057567;27;99236;-72
2022/05/30 03:36:34;;;;;;;0.00;0.00;;;;;;;;;;5055698;27;99463;-72
2022/05/30 03:39:20;;;;;;;0.43;0.38;;;;;;;;;;5052554;27;98681;-72
2022/05/30 03:42:05;;;;;;;0.00;0.00;;;;;;;;;;5054072;27;98386;-73
2022/05/30 03:45:07;;;;;;;0.00;0.00;;;;;;;;;;5013048;28;100372;-73
2022/05/30 03:47:35;;;;;;;0.00;0.00;;;;;;;;;;5029553;27;97775;-73
2022/05/30 03:50:02;;;;;;;0.00;0.00;;;;;;;;;;5037421;27;98446;-72
2022/05/30 03:52:32;;;;;;;0.00;0.00;;;;;;;;;;5037288;27;100221;-72
2022/05/30 03:55:00;;;;;;;0.00;0.00;;;;;;;;;;5036496;27;102841;-72
2022/05/30 03:57:27;;;;;;;0.00;0.00;;;;;;;;;;5040399;27;98461;-72
2022/05/30 03:59:53;;;;;;;0.00;0.00;;;;;;;;;;5054573;27;100140;-73
2022/05/30 04:02:20;;;;;;;0.00;0.00;;;;;;;;;;5037359;27;98399;-72
2022/05/30 04:04:47;;;;;;;0.00;0.00;;;;;;;;;;5055478;27;99443;-72
2022/05/30 04:07:13;;;;;;;0.00;0.00;;;;;;;;;;5054631;27;99591;-72
2022/05/30 04:10:03;;;;;;;0.00;0.00;;;;;;;;;;5046163;27;98437;-72
2022/05/30 04:12:49;;;;;;;2.28;2.08;;;;;;;;;;5055246;27;100285;-72
2022/05/30 04:15:35;;;;;;;0.00;0.00;;;;;;;;;;5053224;27;98605;-72
2022/05/30 04:18:01;;;;;;;0.00;0.00;;;;;;;;;;5036998;27;98508;-72
2022/05/30 04:20:28;;;;;;;0.00;0.00;;;;;;;;;;5057495;27;99829;-72
2022/05/30 04:22:56;;;;;;;0.00;0.00;;;;;;;;;;5054827;27;98515;-72
2022/05/30 04:25:47;;;;;;;0.00;0.00;;;;;;;;;;5036925;27;102150;-72
2022/05/30 04:28:13;;;;;;;0.00;0.00;;;;;;;;;;5036497;27;102450;-72
2022/05/30 04:30:47;;;;;;;0.00;0.00;;;;;;;;;;5036687;27;98417;-73
2022/05/30 04:33:14;;;;;;;0.00;0.00;;;;;;;;;;5036070;27;101847;-73
2022/05/30 04:35:42;;;;;;;0.00;0.00;;;;;;;;;;5054691;27;99589;-73
2022/05/30 04:38:09;;;;;;;0.00;0.00;;;;;;;;;;5055493;27;97678;-72
2022/05/30 04:40:53;;;;;;;0.00;0.00;;;;;;;;;;5054178;27;98412;-72
2022/05/30 04:43:55;;;;;;;0.00;0.00;;;;;;;;;;4975031;28;100061;-72
2022/05/30 04:46:40;;;;;;;0.00;0.00;;;;;;;;;;5046837;27;99174;-72
2022/05/30 04:49:07;;;;;;;0.00;0.00;;;;;;;;;;5036141;27;102395;-72
2022/05/30 04:51:33;;;;;;;0.00;0.00;;;;;;;;;;5036748;27;98407;-73
2022/05/30 04:54:00;;;;;;;0.00;0.00;;;;;;;;;;5036000;27;100893;-72
2022/05/30 04:56:59;;;;;;;0.00;0.00;;;;;;;;;;5019273;27;98981;-73
2022/05/30 04:59:27;;;;;;;0.00;0.00;;;;;;;;;;5036555;27;98540;-73
2022/05/30 05:02:00;;;;;;;0.00;0.00;;;;;;;;;;5036269;27;102369;-73
2022/05/30 05:04:28;;;;;;;0.00;0.00;;;;;;;;;;5039327;27;101513;-73
2022/05/30 05:06:54;;;;;;;0.00;0.00;;;;;;;;;;5036323;27;101055;-73
2022/05/30 05:09:40;;;;;;;0.00;0.00;;;;;;;;;;5035590;27;102012;-73
2022/05/30 05:12:25;;;;;;;0.00;0.00;;;;;;;;;;5053013;27;99107;-73
2022/05/30 05:15:09;;;;;;;0.00;0.00;;;;;;;;;;5053926;27;99894;-73
2022/05/30 05:17:55;;;;;;;0.00;0.00;;;;;;;;;;5051947;27;98692;-73
2022/05/30 05:20:23;;;;;;;0.00;0.00;;;;;;;;;;5054045;27;98435;-73
2022/05/30 05:22:50;;;;;;;0.00;0.00;;;;;;;;;;5054089;27;99316;-73
2022/05/30 05:25:28;;;;;;;0.00;0.00;;;;;;;;;;5035105;27;100933;-73
2022/05/30 05:28:15;;;;;;;0.00;0.00;;;;;;;;;;5057116;27;98855;-73
2022/05/30 05:30:42;;;;;;;0.00;0.00;;;;;;;;;;5036139;27;100725;-73
2022/05/30 05:33:09;;;;;;;1.17;0.68;;;;;;;;;;5035676;27;98489;-73
2022/05/30 05:35:46;;;;;;;0.08;0.08;;;;;;;;;;5035655;27;102202;-73
2022/05/30 05:38:13;;;;;;;0.00;0.00;;;;;;;;;;5018218;27;102274;-73
2022/05/30 05:41:09;;;;;;;0.00;0.00;;;;;;;;;;5049349;27;98403;-73
2022/05/30 05:44:01;;;;;;;0.00;0.00;;;;;;;;;;5049306;27;100318;-74
2022/05/30 05:46:30;;;;;;;0.00;0.00;;;;;;;;;;5052865;27;99603;-74
2022/05/30 05:48:58;;;;;;;0.00;0.00;;;;;;;;;;5053976;27;98410;-74
2022/05/30 05:51:25;;;;;;;0.00;0.00;;;;;;;;;;5040846;27;99893;-74
2022/05/30 05:53:54;;;;;;;0.00;0.00;;;;;;;;;;5038909;27;98392;-74
2022/05/30 05:56:22;;;;;;;0.00;0.00;;;;;;;;;;5035870;27;101383;-74
2022/05/30 05:58:49;;;;;;;0.00;0.00;;;;;;;;;;5033772;27;102529;-75
2022/05/30 06:01:18;;;;;;;0.10;0.10;;;;;;;;;;5035640;27;98456;-73
2022/05/30 06:03:44;;;;;;;0.10;0.10;;;;;;;;;;5035112;27;102091;-72
2022/05/30 06:06:46;;;;;;;0.10;0.10;;;;;;;;;;4990359;28;100596;-72
2022/05/30 06:09:36;;;;;;;0.10;0.10;;;;;;;;;;5039692;27;98463;-72
2022/05/30 06:12:10;;;;;;;0.10;0.10;;;;;;;;;;5053477;27;99315;-72
2022/05/30 06:14:38;;;;;;;0.10;0.10;;;;;;;;;;5038215;27;101726;-72
2022/05/30 06:17:05;;;;;;;0.10;0.10;;;;;;;;;;5035136;27;100531;-73
2022/05/30 06:19:32;;;;;;;0.00;0.00;;;;;;;;;;5034630;27;101777;-72
2022/05/30 06:21:59;;;;;;;0.10;0.10;;;;;;;;;;5053596;27;97561;-70
2022/05/30 06:24:27;;;;;;;0.00;0.00;;;;;;;;;;5035162;27;100151;-71
2022/05/30 06:27:17;;;;;;;0.10;0.10;;;;;;;;;;5051480;27;98709;-71
2022/05/30 06:29:51;;;;;;;0.00;0.00;;;;;;;;;;5052043;27;99145;-71
2022/05/30 06:32:19;;;;;;;0.00;0.00;;;;;;;;;;5034971;27;102555;-72
2022/05/30 06:35:14;;;;;;;0.10;0.10;;;;;;;;;;5031452;27;100363;-73
2022/05/30 06:37:41;;;;;;;0.05;0.05;;;;;;;;;;5020260;27;98548;-72
2022/05/30 06:40:10;;;;;;;0.10;0.10;;;;;;;;;;5034300;27;102334;-73
2022/05/30 06:42:45;;;;;;;0.10;0.10;;;;;;;;;;5052711;27;98680;-74
2022/05/30 06:45:32;;;;;;;0.20;0.10;;;;;;;;;;5050790;27;100119;-72
2022/05/30 06:48:17;;;;;;;0.28;0.28;;;;;;;;;;5051858;27;97949;-72
2022/05/30 06:50:50;;;;;;;0.10;0.10;;;;;;;;;;5034296;27;98476;-73
2022/05/30 06:53:17;;;;;;;0.00;0.00;;;;;;;;;;5034633;27;102622;-72
2022/05/30 06:55:51;;;;;;;0.00;0.00;;;;;;;;;;5033774;27;102150;-72
2022/05/30 06:58:19;;;;;;;0.03;0.03;;;;;;;;;;5034460;27;98458;-73
2022/05/30 07:00:47;;;;;;;1.27;0.52;;;;;;;;;;5055794;27;99041;-77
2022/05/30 07:03:26;;;;;;;0.10;0.10;;;;;;;;;;5052180;27;98397;-76
2022/05/30 07:06:12;;;;;;;0.00;0.00;;;;;;;;;;5050738;27;98846;-74
2022/05/30 07:09:02;;;;;;;;;;;;;;;;;;5043671;27;99089;-73
2022/05/30 07:11:45;;;;;;;0.00;0.00;;;;;;;;;;5055791;27;98646;-72
2022/05/30 07:14:16;;;;;;;0.00;0.00;;;;;;;;;;5038235;27;101605;-73
2022/05/30 07:16:43;;;;;;;0.00;0.00;;;;;;;;;;5037701;27;101265;-73
2022/05/30 07:19:09;;;;;;;0.00;0.00;;;;;;;;;;5037861;27;98373;-72
2022/05/30 07:21:58;;;;;;;0.00;0.00;;;;;;;;;;5057850;27;100359;-73
2022/05/30 07:24:44;;;;;;;0.00;0.00;;;;;;;;;;5053487;27;98399;-73
2022/05/30 07:27:33;;;;;;;0.00;0.00;;;;;;;;;;5007760;27;98601;-72
2022/05/30 07:30:18;;;;;;;0.00;0.00;;;;;;;;;;5054996;27;98650;-73
2022/05/30 07:33:23;;;;;;;0.15;0.15;;;;;;;;;;4973120;28;98699;-75
2022/05/30 07:36:09;;;;;;;0.00;0.00;;;;;;;;;;4972644;28;98438;-76
2022/05/30 07:38:51;;;;;;;0.00;0.00;;;;;;;;;;5012804;27;102234;-75
2022/05/30 07:41:38;;;;;;;0.00;0.00;;;;;;;;;;5054592;27;97428;-72
2022/05/30 07:44:14;;;;;;;0.00;0.00;;;;;;;;;;5037604;27;99601;-72
2022/05/30 07:46:49;;;;;;;0.00;0.00;;;;;;;;;;5040456;27;101822;-73
2022/05/30 07:49:37;;;;;;;0.00;0.00;;;;;;;;;;5036716;27;101842;-73
2022/05/30 07:52:22;;;;;;;1.05;1.00;;;;;;;;;;5036848;27;101818;-73
2022/05/30 07:55:09;;;;;;;0.00;0.00;;;;;;;;;;5037265;27;98616;-73
2022/05/30 07:57:51;;;;;;;0.00;0.00;;;;;;;;;;5039052;27;101935;-72
2022/05/30 08:00:21;;;;;;;0.00;0.00;;;;;;;;;;5038333;27;102081;-72
2022/05/30 08:02:51;;;;;;;0.00;0.00;;;;;;;;;;5053904;27;98399;-71
2022/05/30 08:05:23;;;;;;;0.00;0.00;;;;;;;;;;5037276;27;102391;-71
2022/05/30 08:08:15;;;;;;;0.00;0.00;;;;;;;;;;5022961;27;98137;-71
2022/05/30 08:10:52;;;;;;;0.05;0.05;;;;;;;;;;5040434;27;98408;-71
2022/05/30 08:13:20;;;;;;;0.00;0.00;;;;;;;;;;5036528;27;101549;-71
2022/05/30 08:15:51;;;;;;;0.00;0.00;;;;;;;;;;5036347;27;99177;-71
2022/05/30 08:18:27;;;;;;;0.00;0.00;;;;;;;;;;5036655;27;102738;-71
2022/05/30 08:20:57;;;;;;;0.03;0.03;;;;;;;;;;5035826;27;101421;-71
2022/05/30 08:23:24;;;;;;;0.00;0.00;;;;;;;;;;5036858;27;98499;-71
2022/05/30 08:25:53;;;;;;;0.00;0.00;;;;;;;;;;5036810;27;101720;-71
2022/05/30 08:28:23;;;;;;;0.00;0.00;;;;;;;;;;5036318;27;102180;-73
2022/05/30 08:30:50;;;;;;;0.10;0.10;;;;;;;;;;5036858;27;99316;-73
2022/05/30 08:33:45;;;;;;;0.00;0.00;;;;;;;;;;5057174;27;100223;-72
2022/05/30 08:36:32;;;;;;;0.00;0.00;;;;;;;;;;5036519;27;98457;-74
2022/05/30 08:42:00;;;;;;;0.00;0.00;;;;;;;;;;5002722;27;103972;-73
2022/05/30 08:45:02;;;;;;;0.10;0.10;;;;;;;;;;4987593;27;98530;-75
2022/05/30 08:47:48;;;;;;;0.00;0.00;;;;;;;;;;5036237;27;102022;-77
2022/05/30 08:50:25;;;;;;;0.00;0.00;;;;;;;;;;5036219;27;101664;-77
2022/05/30 08:53:03;;;;;;;0.00;0.00;;;;;;;;;;5036284;27;98431;-73
2022/05/30 08:55:42;;;;;;;0.10;0.10;;;;;;;;;;5036142;27;101973;-74
2022/05/30 08:58:33;;;;;;;0.00;0.00;;;;;;;;;;5038796;27;101281;-75
2022/05/30 09:01:20;;;;;;;0.10;0.10;;;;;;;;;;5036918;27;102308;-75
2022/05/30 09:04:11;;;;;;;0.00;0.00;;;;;;;;;;5053597;27;98718;-75
2022/05/30 09:06:47;;;;;;;0.00;0.00;;;;;;;;;;5036214;27;98578;-74
2022/05/30 09:09:20;;;;;;;0.00;0.00;;;;;;;;;;5035118;27;101906;-75
2022/05/30 09:12:17;;;;;;;0.00;0.00;;;;;;;;;;5053160;27;98621;-74
2022/05/30 09:15:03;;;;;;;0.00;0.00;;;;;;;;;;5036020;27;98701;-74
2022/05/30 09:17:33;;;;;;;0.00;0.00;;;;;;;;;;5036208;27;101285;-71
2022/05/30 09:20:01;;;;;;;0.00;0.00;;;;;;;;;;5035778;27;102194;-70
2022/05/30 09:22:27;;;;;;;0.00;0.00;;;;;;;;;;5039172;27;98662;-70
2022/05/30 09:27:51;;;;;;;0.00;0.00;;;;;;;;;;5036407;27;97712;-74
2022/05/30 09:30:41;;;;;;;0.00;0.00;;;;;;;;;;5021800;27;98605;-74
2022/05/30 09:33:35;;;;;;;0.00;0.00;;;;;;;;;;5051636;27;100626;-74
2022/05/30 09:36:46;;;;;;;0.00;0.00;;;;;;;;;;4970923;28;99176;-74
2022/05/30 09:39:41;;;;;;;0.00;0.00;;;;;;;;;;5033980;27;102587;-75
2022/05/30 09:42:18;;;;;;;0.00;0.00;;;;;;;;;;5018087;27;102375;-74
2022/05/30 09:44:48;;;;;;;0.00;0.00;;;;;;;;;;5038466;27;98579;-74
2022/05/30 09:47:56;;;;;;;0.10;0.10;;;;;;;;;;5005336;27;98886;-74
2022/05/30 09:50:28;;;;;;;0.00;0.00;;;;;;;;;;5035402;27;98521;-74
2022/05/30 09:52:55;;;;;;;0.00;0.00;;;;;;;;;;5035806;27;101795;-73
2022/05/30 09:55:37;;;;;;;0.20;0.20;;;;;;;;;;5019608;27;101156;-73
2022/05/30 09:58:10;;;;;;;0.10;0.10;;;;;;;;;;5035187;27;98474;-74
2022/05/30 10:00:58;;;;;;;0.00;0.00;;;;;;;;;;5035126;27;102608;-74
2022/05/30 10:03:33;;;;;;;0.10;0.10;;;;;;;;;;5056013;27;100346;-74
2022/05/30 10:06:19;;;;;;;0.20;0.20;;;;;;;;;;5052487;27;99031;-73
2022/05/30 10:08:49;;;;;;;0.65;0.65;;;;;;;;;;5037657;27;101388;-73
2022/05/30 10:11:32;;;;;;;0.10;0.10;;;;;;;;;;5053178;27;98404;-73
2022/05/30 10:14:18;;;;;;;0.00;0.00;;;;;;;;;;5035362;27;102068;-71
2022/05/30 10:17:12;;;;;;;0.10;0.10;;;;;;;;;;5034727;27;101026;-74
2022/05/30 10:19:41;;;;;;;0.10;0.10;;;;;;;;;;5034931;27;98476;-75
2022/05/30 10:28:50;;;;;;;0.00;0.00;;;;;;;;;;5052488;27;98580;-74
2022/05/30 10:31:38;;;;;;;0.00;0.00;;;;;;;;;;5052022;27;99175;-73
2022/05/30 10:34:29;;;;;;;0.55;0.55;;;;;;;;;;5020860;27;101565;-73
2022/05/30 10:37:00;;;;;;;0.00;0.00;;;;;;;;;;5034932;27;101620;-74
2022/05/30 10:39:45;;;;;;;0.00;0.00;;;;;;;;;;5052380;27;100712;-71
2022/05/30 10:42:16;;;;;;;0.00;0.00;;;;;;;;;;5034899;27;98475;-73
2022/05/30 10:44:47;;;;;;;0.10;0.10;;;;;;;;;;5037406;27;100726;-74
2022/05/30 10:47:21;;;;;;;0.00;0.00;;;;;;;;;;5037937;27;101516;-74
2022/05/30 10:50:10;;;;;;;0.10;0.10;;;;;;;;;;5038769;27;97772;-74
2022/05/30 10:52:44;;;;;;;0.00;0.00;;;;;;;;;;5038288;27;100982;-73
2022/05/30 10:55:22;;;;;;;0.00;0.00;;;;;;;;;;5037738;27;102234;-74
2022/05/30 10:57:50;;;;;;;0.00;0.00;;;;;;;;;;5041108;27;99229;-74
2022/05/30 11:00:19;;;;;;;0.00;0.00;;;;;;;;;;5037902;27;101815;-75
2022/05/30 11:02:53;;;;;;;0.00;0.00;;;;;;;;;;5038158;27;98387;-75
2022/05/30 11:05:24;;;;;;;0.00;0.00;;;;;;;;;;5037846;27;101986;-74
2022/05/30 11:07:57;;;;;;;0.00;0.00;;;;;;;;;;5034091;28;103234;-75
2022/05/30 11:10:28;;;;;;;0.00;0.00;;;;;;;;;;5034657;28;98371;-74
2022/05/30 11:13:18;;;;;;;0.00;0.00;;;;;;;;;;5034764;28;101336;-74
2022/05/30 11:16:23;;;;;;;0.00;0.00;;;;;;;;;;5034592;28;100872;-74
2022/05/30 11:19:13;;;;;;;0.10;0.10;;;;;;;;;;5034534;28;98432;-74
2022/05/30 11:22:14;;;;;;;0.00;0.00;;;;;;;;;;5037736;28;98345;-74
2022/05/30 11:24:40;;;;;;;;;;;;;;;;;;5034348;28;99269;-74
2022/05/30 11:27:07;;;;;;;0.00;0.00;;;;;;;;;;5034831;28;129091;-75
2022/05/30 11:29:44;;;;;;;0.00;0.00;;;;;;;;;;5035174;27;99676;-74
2022/05/30 11:32:34;;;;;;;0.00;0.00;;;;;;;;;;5035596;28;98211;-75
2022/05/30 11:35:10;;;;;;;0.10;0.10;;;;;;;;;;5035108;27;100321;-75
2022/05/30 11:37:58;;;;;;;0.10;0.10;;;;;;;;;;5035033;28;99274;-74
2022/05/30 11:40:25;;;;;;;0.20;0.20;;;;;;;;;;5035145;28;98511;-74
2022/05/30 11:43:15;;;;;;;0.10;0.10;;;;;;;;;;5038790;28;99478;-74
2022/05/30 11:45:54;;;;;;;0.00;0.00;;;;;;;;;;5034345;28;98571;-74
2022/05/30 11:48:45;;;;;;;0.10;0.10;;;;;;;;;;5035597;28;98911;-74
2022/05/30 11:51:30;;;;;;;0.00;0.00;;;;;;;;;;5034236;28;99978;-75
2022/05/30 11:54:09;;;;;;;0.00;0.00;;;;;;;;;;5035360;28;99025;-74
2022/05/30 11:56:38;;;;;;;0.00;0.00;;;;;;;;;;5034280;28;99086;-74
2022/05/30 11:59:20;;;;;;;0.10;0.10;;;;;;;;;;5034652;28;100195;-76
2022/05/30 12:01:49;;;;;;;0.00;0.00;;;;;;;;;;5034692;28;98401;-76
2022/05/30 12:04:19;;;;;;;0.10;0.10;;;;;;;;;;5035123;28;99617;-76
2022/05/30 12:07:04;;;;;;;0.00;0.00;;;;;;;;;;5036669;28;100680;-76
2022/05/30 12:09:48;;;;;;;0.00;0.00;;;;;;;;;;5035543;28;99492;-77
2022/05/30 12:12:23;;;;;;;0.10;0.10;;;;;;;;;;5033738;28;100888;-75
2022/05/30 12:15:03;;;;;;;0.00;0.00;;;;;;;;;;5034461;28;98502;-76
2022/05/30 12:17:30;;;;;;;0.00;0.00;;;;;;;;;;5034526;28;99509;-76
2022/05/30 12:25:44;;;;;;;0.00;0.00;;;;;;;;;;5034641;28;99395;-73
2022/05/30 12:28:34;;;;;;;0.00;0.00;;;;;;;;;;5034536;28;99722;-73
2022/05/30 12:31:01;;;;;;;0.10;0.10;;;;;;;;;;5036213;28;98542;-77
2022/05/30 12:33:28;;;;;;;0.00;0.00;;;;;;;;;;5034061;27;99945;-73
2022/05/30 12:36:09;;;;;;;0.10;0.10;;;;;;;;;;5034906;28;98025;-73
2022/05/30 12:38:51;;;;;;;0.08;0.08;;;;;;;;;;5034793;28;98754;-74
2022/05/30 12:41:17;;;;;;;;;;;;;;;;;;5034184;28;100138;-74
2022/05/30 12:43:45;;;;;;;0.00;0.00;;;;;;;;;;5032993;28;116979;-74
2022/05/30 12:46:13;;;;;;;0.00;0.00;;;;;;;;;;5034338;28;100260;-73
2022/05/30 12:48:58;;;;;;;0.10;0.10;;;;;;;;;;5033922;28;99499;-75
2022/05/30 12:51:39;;;;;;;0.00;0.00;;;;;;;;;;5017990;28;99021;-75
2022/05/30 12:54:07;;;;;;;0.10;0.10;;;;;;;;;;5016030;28;100246;-75
2022/05/30 12:56:39;;;;;;;0.08;0.08;;;;;;;;;;5013557;28;98457;-77
2022/05/30 12:59:06;;;;;;;0.00;0.00;;;;;;;;;;5013569;28;99844;-75
2022/05/30 13:01:45;;;;;;;0.00;0.00;;;;;;;;;;5013574;28;98283;-76
2022/05/30 13:04:21;;;;;;;0.00;0.00;;;;;;;;;;5012934;28;98430;-75
2022/05/30 13:06:48;;;;;;;0.03;0.03;;;;;;;;;;5013534;28;100182;-76
2022/05/30 13:09:17;;;;;;;0.13;0.13;;;;;;;;;;5030467;27;100625;-76
2022/05/30 13:11:52;;;;;;;0.00;0.00;;;;;;;;;;5033644;27;98907;-75
2022/05/30 13:14:36;;;;;;;0.00;0.00;;;;;;;;;;5032790;27;100966;-75
2022/05/30 13:17:08;;;;;;;0.17;0.17;;;;;;;;;;5036189;27;99425;-75
2022/05/30 13:19:40;;;;;;;0.00;0.00;;;;;;;;;;5033453;27;99489;-75
2022/05/30 13:22:06;;;;;;;0.10;0.10;;;;;;;;;;5032936;27;99692;-76
2022/05/30 13:24:35;;;;;;;0.00;0.00;;;;;;;;;;5033607;27;99274;-75
2022/05/30 13:27:02;;;;;;;0.00;0.00;;;;;;;;;;5034098;27;99445;-75
2022/05/30 13:29:30;;;;;;;0.08;0.08;;;;;;;;;;5032333;27;99581;-75
2022/05/30 13:31:57;;;;;;;0.10;0.10;;;;;;;;;;5032884;27;99197;-76
2022/05/30 13:34:25;;;;;;;0.00;0.00;;;;;;;;;;5016539;27;99275;-75
2022/05/30 13:36:59;;;;;;;0.00;0.00;;;;;;;;;;5032625;27;99255;-76
2022/05/30 13:39:26;;;;;;;0.00;0.00;;;;;;;;;;5036574;27;98985;-78
2022/05/30 13:41:53;;;;;;;0.00;0.00;;;;;;;;;;5032559;27;99127;-76
2022/05/30 13:44:28;;;;;;;0.00;0.00;;;;;;;;;;5034175;27;98347;-75
2022/05/30 13:46:59;;;;;;;0.00;0.00;;;;;;;;;;5032860;27;100306;-77
2022/05/30 13:49:30;;;;;;;0.00;0.00;;;;;;;;;;5032814;27;99197;-77
2022/05/30 13:51:58;;;;;;;0.10;0.10;;;;;;;;;;5037669;27;97712;-78
2022/05/30 13:54:24;;;;;;;0.00;0.00;;;;;;;;;;5016656;28;99509;-76
2022/05/30 13:56:52;;;;;;;0.00;0.00;;;;;;;;;;5032492;27;99270;-75
2022/05/30 13:59:28;;;;;;;0.00;0.00;;;;;;;;;;5035117;27;99206;-76
2022/05/30 14:01:55;;;;;;;0.00;0.00;;;;;;;;;;5032501;27;99691;-76
2022/05/30 14:04:39;;;;;;;0.00;0.00;;;;;;;;;;5035134;27;99221;-75
2022/05/30 14:07:17;;;;;;;1.55;0.45;;;;;;;;;;5032276;27;99824;-75
2022/05/30 14:09:44;;;;;;;0.00;0.00;;;;;;;;;;5032535;27;99573;-76
2022/05/30 14:12:14;;;;;;;0.00;0.00;;;;;;;;;;5032660;27;98556;-77
2022/05/30 14:15:06;;;;;;;0.10;0.10;;;;;;;;;;5038623;27;98464;-76
2022/05/30 14:17:32;;;;;;;0.00;0.00;;;;;;;;;;5029609;27;99029;-76
2022/05/30 14:20:04;;;;;;;0.00;0.00;;;;;;;;;;5038460;27;98399;-76
2022/05/30 14:22:31;;;;;;;0.00;0.00;;;;;;;;;;5042045;27;99370;-76
2022/05/30 14:24:59;;;;;;;0.00;0.00;;;;;;;;;;5041900;27;99149;-77
2022/05/30 14:27:36;;;;;;;0.10;0.10;;;;;;;;;;5039289;27;100093;-77
2022/05/30 14:30:08;;;;;;;0.10;0.10;;;;;;;;;;5038577;27;100002;-73
2022/05/30 14:32:40;;;;;;;0.10;0.10;;;;;;;;;;5038775;27;98499;-81
2022/05/30 14:35:13;;;;;;;0.10;0.10;;;;;;;;;;5042612;27;99283;-76
2022/05/30 14:37:44;;;;;;;0.10;0.10;;;;;;;;;;5034935;27;99248;-80
2022/05/30 14:40:22;;;;;;;0.10;0.10;;;;;;;;;;5039204;27;98390;-75
2022/05/30 14:42:52;;;;;;;0.00;0.00;;;;;;;;;;5038542;27;99459;-75
2022/05/30 14:45:41;;;;;;;0.00;0.00;;;;;;;;;;5045857;27;99502;-76
2022/05/30 14:48:19;;;;;;;0.00;0.00;;;;;;;;;;5038502;27;100230;-78
2022/05/30 14:50:54;;;;;;;0.10;0.10;;;;;;;;;;5038181;27;99718;-75
2022/05/30 14:53:28;;;;;;;0.00;0.00;;;;;;;;;;5038626;27;98473;-81
2022/05/30 14:56:14;;;;;;;0.00;0.00;;;;;;;;;;5038884;27;98865;-75
2022/05/30 14:58:41;;;;;;;0.00;0.00;;;;;;;;;;5038428;27;98924;-75
2022/05/30 15:01:28;;;;;;;0.08;0.08;;;;;;;;;;5037784;27;98482;-76
2022/05/30 15:04:10;;;;;;;0.00;0.00;;;;;;;;;;5039027;27;99396;-78
2022/05/30 15:06:53;;;;;;;0.10;0.10;;;;;;;;;;5038136;27;100411;-77
2022/05/30 15:09:21;;;;;;;0.03;0.03;;;;;;;;;;5001683;28;97576;-77
2022/05/30 15:11:49;;;;;;;0.10;0.10;;;;;;;;;;4997957;28;99128;-75
2022/05/30 15:14:16;;;;;;;0.10;0.10;;;;;;;;;;4999215;28;98503;-77
2022/05/30 15:16:44;;;;;;;0.10;0.10;;;;;;;;;;4997516;28;100032;-76
2022/05/30 15:19:14;;;;;;;0.10;0.10;;;;;;;;;;5000000;28;100511;-77
2022/05/30 15:21:43;;;;;;;0.10;0.10;;;;;;;;;;4998407;28;98352;-76
2022/05/30 15:24:14;;;;;;;0.00;0.00;;;;;;;;;;4999646;28;99403;-75
2022/05/30 15:26:42;;;;;;;0.00;0.00;;;;;;;;;;4996937;28;99543;-75
2022/05/30 15:29:09;;;;;;;0.10;0.10;;;;;;;;;;4997744;28;98668;-76
2022/05/30 15:31:35;;;;;;;0.00;0.00;;;;;;;;;;4996532;28;99945;-77
2022/05/30 15:34:02;;;;;;;0.00;0.00;;;;;;;;;;4996162;28;98627;-76
2022/05/30 15:36:28;;;;;;;0.05;0.05;;;;;;;;;;4994452;28;99507;-76
2022/05/30 15:39:05;;;;;;;0.00;0.00;;;;;;;;;;4994519;28;99790;-77
2022/05/30 15:41:32;;;;;;;0.00;0.00;;;;;;;;;;4994451;28;99164;-78
2022/05/30 15:44:00;;;;;;;0.00;0.00;;;;;;;;;;4997004;28;99252;-78
2022/05/30 15:46:27;;;;;;;0.00;0.00;;;;;;;;;;4994411;28;99242;-78
2022/05/30 15:48:53;;;;;;;0.10;0.10;;;;;;;;;;4997587;28;100047;-77